Time;durP1;ratioP1;P1;durP2;ratioP2;P2;SDS_P1;SDS_P2;PMS_P1;PMS_P2;Temp;Humidity;BMP_temperature;BMP_pressure;BME280_temperature;BME280_humidity;BME280_pressure;Samples;Min_cycle;Max_cycle;Signal;HPM_P1;HPM_P2
2022/04/18 00:00:03;;;;;;;4.00;3.70;;;7.20;66.80;;;;;;6190961;23;20495;-80
2022/04/18 00:02:30;;;;;;;4.57;4.28;;;7.10;66.50;;;;;;6190200;23;20200;-80
2022/04/18 00:04:57;;;;;;;3.83;3.53;;;7.10;66.90;;;;;;6190985;23;20197;-80
2022/04/18 00:07:23;;;;;;;4.00;3.70;;;7.00;67.40;;;;;;6190799;23;20543;-80
2022/04/18 00:09:50;;;;;;;3.92;3.63;;;7.00;67.80;;;;;;6190351;23;20182;-80
2022/04/18 00:12:18;;;;;;;4.68;3.72;;;7.00;68.20;;;;;;6190964;23;20185;-80
2022/04/18 00:14:45;;;;;;;4.32;3.92;;;6.90;68.40;;;;;;6191102;23;20186;-80
2022/04/18 00:17:12;;;;;;;3.78;3.47;;;6.90;68.70;;;;;;6191068;23;20182;-80
2022/04/18 00:19:39;;;;;;;4.38;3.40;;;6.80;69.20;;;;;;6191144;23;20193;-80
2022/04/18 00:22:06;;;;;;;4.35;3.95;;;6.80;69.50;;;;;;6190034;23;20230;-80
2022/04/18 00:24:33;;;;;;;3.85;3.55;;;6.80;69.60;;;;;;6190463;23;20183;-80
2022/04/18 00:27:01;;;;;;;3.55;3.15;;;6.80;69.40;;;;;;6190476;23;20210;-80
2022/04/18 00:29:29;;;;;;;4.63;4.25;;;6.70;69.70;;;;;;6190435;23;20562;-80
2022/04/18 00:31:56;;;;;;;4.15;3.75;;;6.70;70.50;;;;;;6190430;23;20198;-80
2022/04/18 00:34:23;;;;;;;4.70;4.30;;;6.70;71.00;;;;;;6190534;23;20566;-80
2022/04/18 00:36:50;;;;;;;6.35;4.07;;;6.70;71.40;;;;;;6190576;23;20203;-80
2022/04/18 00:39:16;;;;;;;6.47;4.53;;;6.60;71.90;;;;;;6190159;23;20189;-80
2022/04/18 00:41:43;;;;;;;4.07;3.88;;;6.50;72.70;;;;;;6190370;23;20301;-80
2022/04/18 00:44:10;;;;;;;4.13;3.70;;;6.50;73.00;;;;;;6190251;23;20178;-80
2022/04/18 00:46:38;;;;;;;4.35;4.05;;;6.50;73.00;;;;;;6189916;23;20198;-80
2022/04/18 00:49:05;;;;;;;5.40;4.20;;;6.40;73.50;;;;;;6190446;23;20201;-80
2022/04/18 00:51:31;;;;;;;4.03;3.70;;;6.40;73.80;;;;;;6190381;23;20626;-80
2022/04/18 00:53:59;;;;;;;4.63;4.18;;;6.40;74.30;;;;;;6190256;23;20186;-80
2022/04/18 00:56:26;;;;;;;5.05;4.47;;;6.30;75.00;;;;;;6190450;23;20210;-80
2022/04/18 00:58:54;;;;;;;4.95;4.50;;;6.30;75.40;;;;;;6190569;23;20182;-80
2022/04/18 01:01:20;;;;;;;5.95;5.47;;;6.30;75.90;;;;;;6193092;23;20178;-80
2022/04/18 01:03:49;;;;;;;4.90;4.50;;;6.30;76.00;;;;;;6195664;23;20191;-79
2022/04/18 01:06:16;;;;;;;5.53;5.13;;;6.20;76.20;;;;;;6191258;23;20202;-81
2022/04/18 01:08:44;;;;;;;5.32;5.03;;;6.20;76.60;;;;;;6191149;23;20183;-80
2022/04/18 01:11:11;;;;;;;5.50;4.68;;;6.20;77.20;;;;;;6190792;23;20241;-80
2022/04/18 01:13:42;;;;;;;5.25;4.85;;;6.10;77.50;;;;;;6190565;23;20182;-80
2022/04/18 01:16:09;;;;;;;5.78;5.38;;;6.10;77.80;;;;;;6190284;23;20209;-80
2022/04/18 01:18:37;;;;;;;5.75;5.18;;;6.10;78.50;;;;;;6191726;23;20189;-80
2022/04/18 01:21:05;;;;;;;5.43;5.03;;;6.10;78.90;;;;;;6191121;23;20189;-80
2022/04/18 01:23:32;;;;;;;5.72;4.80;;;6.00;79.10;;;;;;6191139;23;20692;-80
2022/04/18 01:28:59;;;;;;;6.05;5.55;;;6.00;80.40;;;;;;6189891;23;20554;-80
2022/04/18 01:31:26;;;;;;;6.63;5.10;;;6.00;80.90;;;;;;6190277;23;20171;-80
2022/04/18 01:33:53;;;;;;;5.65;5.15;;;5.90;81.10;;;;;;6191865;23;20182;-80
2022/04/18 01:36:21;;;;;;;5.63;4.93;;;5.90;81.50;;;;;;6191583;23;20602;-80
2022/04/18 01:38:47;;;;;;;6.10;5.60;;;5.80;82.30;;;;;;6191098;23;20182;-80
2022/04/18 01:41:14;;;;;;;6.20;5.60;;;5.70;82.70;;;;;;6191482;23;20178;-80
2022/04/18 01:43:41;;;;;;;6.00;5.50;;;5.70;83.40;;;;;;6191620;23;20208;-80
2022/04/18 01:46:07;;;;;;;5.57;5.18;;;5.70;83.00;;;;;;6190180;23;20202;-80
2022/04/18 01:48:34;;;;;;;5.40;4.90;;;5.70;82.60;;;;;;6190180;23;20186;-80
2022/04/18 01:51:01;;;;;;;5.43;5.03;;;5.70;82.80;;;;;;6190403;23;20185;-80
2022/04/18 01:53:30;;;;;;;5.65;5.25;;;5.70;83.10;;;;;;6189944;23;20178;-80
2022/04/18 01:55:57;;;;;;;4.55;4.25;;;5.60;83.60;;;;;;6189468;23;20253;-80
2022/04/18 01:58:24;;;;;;;6.05;5.05;;;5.60;84.10;;;;;;6190731;23;20168;-80
2022/04/18 02:00:50;;;;;;;5.18;4.78;;;5.60;84.50;;;;;;6189786;23;20201;-80
2022/04/18 02:03:17;;;;;;;6.45;5.85;;;5.60;84.60;;;;;;6190563;23;20194;-80
2022/04/18 02:05:44;;;;;;;6.88;5.82;;;5.50;84.50;;;;;;6191499;23;20202;-80
2022/04/18 02:08:14;;;;;;;6.05;5.45;;;5.40;85.10;;;;;;6192274;23;20178;-80
2022/04/18 02:10:42;;;;;;;7.78;6.05;;;5.30;85.60;;;;;;6191840;23;20182;-80
2022/04/18 02:13:09;;;;;;;5.32;4.82;;;5.20;86.20;;;;;;6192000;23;20194;-80
2022/04/18 02:15:35;;;;;;;4.97;4.47;;;5.10;87.10;;;;;;6192421;23;20268;-80
2022/04/18 02:18:02;;;;;;;5.50;5.00;;;5.20;87.70;;;;;;6191482;23;20186;-80
2022/04/18 02:20:29;;;;;;;6.15;5.55;;;5.20;87.90;;;;;;6192023;23;20182;-80
2022/04/18 02:22:56;;;;;;;5.82;5.32;;;5.20;88.40;;;;;;6191973;23;20237;-80
2022/04/18 02:25:23;;;;;;;5.40;5.00;;;5.20;89.40;;;;;;6191720;23;20202;-80
2022/04/18 02:27:52;;;;;;;6.75;6.10;;;5.10;89.50;;;;;;6191679;23;20183;-80
2022/04/18 02:30:19;;;;;;;5.93;4.90;;;5.10;90.00;;;;;;6191995;23;20191;-80
2022/04/18 02:32:49;;;;;;;6.22;5.53;;;5.10;90.20;;;;;;6191051;23;20201;-80
2022/04/18 02:35:17;;;;;;;5.95;5.50;;;5.10;90.60;;;;;;6192207;23;20288;-80
2022/04/18 02:37:44;;;;;;;5.43;5.03;;;5.10;90.70;;;;;;6191403;23;20186;-80
2022/04/18 02:40:12;;;;;;;6.20;5.60;;;5.10;90.80;;;;;;6191700;23;20193;-80
2022/04/18 02:42:40;;;;;;;6.05;5.53;;;5.20;91.10;;;;;;6192048;23;20745;-80
2022/04/18 02:45:09;;;;;;;5.78;5.28;;;5.10;91.10;;;;;;6192228;23;20574;-80
2022/04/18 02:47:36;;;;;;;7.00;6.30;;;5.10;91.30;;;;;;6191856;23;20185;-80
2022/04/18 02:50:03;;;;;;;7.07;6.03;;;5.10;91.60;;;;;;6190959;23;20183;-80
2022/04/18 02:52:30;;;;;;;7.40;6.70;;;5.10;91.70;;;;;;6191128;23;20202;-80
2022/04/18 02:54:57;;;;;;;6.53;6.00;;;5.10;91.30;;;;;;6191415;23;20186;-80
2022/04/18 02:57:23;;;;;;;7.85;7.18;;;5.00;91.00;;;;;;6191402;23;20190;-80
2022/04/18 02:59:50;;;;;;;5.90;5.43;;;4.90;91.10;;;;;;6191165;23;20185;-80
2022/04/18 03:02:18;;;;;;;6.20;5.70;;;4.70;91.30;;;;;;6191313;23;20175;-80
2022/04/18 03:04:45;;;;;;;6.63;6.05;;;4.70;91.80;;;;;;6190854;23;20514;-80
2022/04/18 03:07:12;;;;;;;6.38;5.88;;;4.70;91.90;;;;;;6190152;23;20193;-80
2022/04/18 03:09:38;;;;;;;7.10;6.45;;;4.70;92.00;;;;;;6190155;23;20178;-80
2022/04/18 03:12:07;;;;;;;7.88;7.10;;;4.70;92.30;;;;;;6187734;23;20183;-79
2022/04/18 03:14:34;;;;;;;7.22;6.63;;;4.70;92.50;;;;;;6188013;23;20182;-79
2022/04/18 03:17:00;;;;;;;9.80;7.32;;;4.70;92.70;;;;;;6187884;23;20201;-79
2022/04/18 03:19:28;;;;;;;8.15;7.43;;;4.70;92.90;;;;;;6187399;23;20182;-79
2022/04/18 03:21:55;;;;;;;7.65;6.95;;;4.70;92.90;;;;;;6187472;23;20178;-79
2022/04/18 03:24:22;;;;;;;9.93;8.18;;;4.70;93.00;;;;;;6187085;23;20292;-79
2022/04/18 03:26:48;;;;;;;8.25;6.93;;;4.70;93.20;;;;;;6187203;23;20688;-79
2022/04/18 03:29:15;;;;;;;8.25;7.10;;;4.70;93.30;;;;;;6187921;23;20277;-79
2022/04/18 03:31:42;;;;;;;7.30;6.70;;;4.60;93.40;;;;;;6186749;23;20178;-79
2022/04/18 03:34:08;;;;;;;8.40;6.75;;;4.70;93.70;;;;;;6187381;23;20205;-79
2022/04/18 03:42:08;;;;;;;7.70;6.40;;;4.70;93.80;;;;;;6186973;23;20504;-79
2022/04/18 03:44:39;;;;;;;11.18;7.90;;;4.80;94.10;;;;;;6187592;23;20191;-79
2022/04/18 03:47:06;;;;;;;8.60;7.63;;;4.70;94.20;;;;;;6187567;23;20198;-79
2022/04/18 03:49:32;;;;;;;8.95;6.93;;;4.70;94.40;;;;;;6187748;23;20186;-79
2022/04/18 03:52:00;;;;;;;7.22;6.00;;;4.60;94.90;;;;;;6187545;23;20185;-79
2022/04/18 03:54:27;;;;;;;6.03;5.53;;;4.60;95.00;;;;;;6187853;23;20534;-79
2022/04/18 03:56:54;;;;;;;7.70;7.00;;;4.70;95.10;;;;;;6187175;23;20210;-79
2022/04/18 03:59:20;;;;;;;5.95;5.13;;;4.60;95.10;;;;;;6187670;23;20182;-79
2022/04/18 04:01:47;;;;;;;7.22;5.60;;;4.50;94.90;;;;;;6187360;23;20179;-79
2022/04/18 04:04:14;;;;;;;5.30;4.80;;;4.20;95.30;;;;;;6187224;23;20178;-79
2022/04/18 04:06:41;;;;;;;6.72;6.13;;;4.10;95.90;;;;;;6187411;23;20205;-79
2022/04/18 04:09:09;;;;;;;6.70;5.07;;;4.10;96.10;;;;;;6187749;23;20183;-79
2022/04/18 04:11:35;;;;;;;6.35;5.80;;;4.30;96.10;;;;;;6187328;23;20189;-79
2022/04/18 04:14:02;;;;;;;5.93;5.45;;;4.30;96.00;;;;;;6187292;23;20198;-79
2022/04/18 04:16:29;;;;;;;5.40;4.95;;;4.20;96.10;;;;;;6187628;23;20206;-79
2022/04/18 04:18:56;;;;;;;6.60;5.18;;;4.30;96.10;;;;;;6190078;23;20182;-78
2022/04/18 04:21:22;;;;;;;8.50;5.35;;;4.20;96.30;;;;;;6193425;23;20293;-78
2022/04/18 04:23:49;;;;;;;5.70;5.10;;;4.30;96.40;;;;;;6189937;23;20181;-79
2022/04/18 04:26:17;;;;;;;6.38;5.03;;;4.20;96.60;;;;;;6187756;23;20693;-79
2022/04/18 04:28:44;;;;;;;5.85;5.35;;;4.20;96.60;;;;;;6187976;23;20188;-79
2022/04/18 04:31:11;;;;;;;6.10;5.18;;;4.20;96.60;;;;;;6186692;23;20189;-79
2022/04/18 04:33:37;;;;;;;4.25;3.95;;;4.30;96.70;;;;;;6187707;23;20194;-79
2022/04/18 04:36:04;;;;;;;6.93;5.00;;;4.30;96.70;;;;;;6187007;23;20535;-79
2022/04/18 04:38:31;;;;;;;5.57;5.07;;;4.30;96.90;;;;;;6187458;23;20491;-79
2022/04/18 04:40:58;;;;;;;5.10;4.70;;;4.30;97.00;;;;;;6186608;23;20186;-79
2022/04/18 04:43:28;;;;;;;4.82;4.43;;;4.30;97.00;;;;;;6186843;23;20179;-79
2022/04/18 04:45:55;;;;;;;4.60;4.25;;;4.40;97.00;;;;;;6186423;23;20203;-79
2022/04/18 04:48:22;;;;;;;5.55;5.15;;;4.40;97.10;;;;;;6186794;23;20182;-79
2022/04/18 04:50:49;;;;;;;5.93;5.03;;;4.40;97.10;;;;;;6186085;23;20193;-79
2022/04/18 04:53:16;;;;;;;6.18;5.57;;;4.40;97.20;;;;;;6187160;23;20202;-79
2022/04/18 04:55:43;;;;;;;6.00;5.40;;;4.50;97.30;;;;;;6186565;23;20234;-79
2022/04/18 04:58:10;;;;;;;5.70;4.55;;;4.50;97.30;;;;;;6187279;23;20176;-79
2022/04/18 05:00:38;;;;;;;6.20;5.65;;;4.50;97.30;;;;;;6186618;23;20208;-79
2022/04/18 05:03:06;;;;;;;4.88;4.47;;;4.50;97.20;;;;;;6187484;23;20175;-79
2022/04/18 05:05:33;;;;;;;6.13;5.20;;;4.60;97.10;;;;;;6186588;23;20686;-79
2022/04/18 05:08:00;;;;;;;5.03;4.65;;;4.60;96.70;;;;;;6186801;23;20182;-79
2022/04/18 05:10:26;;;;;;;5.40;4.63;;;4.60;96.20;;;;;;6186828;23;20197;-79
2022/04/18 05:12:53;;;;;;;5.88;5.10;;;4.60;96.20;;;;;;6187361;23;20198;-79
2022/04/18 05:15:20;;;;;;;4.68;4.30;;;4.70;96.40;;;;;;6186709;23;20289;-79
2022/04/18 05:17:48;;;;;;;4.28;3.97;;;4.70;96.50;;;;;;6187177;23;20186;-79
2022/04/18 05:20:15;;;;;;;4.63;4.25;;;4.80;96.40;;;;;;6186579;23;20182;-79
2022/04/18 05:22:42;;;;;;;5.15;4.65;;;4.80;96.20;;;;;;6187055;23;20535;-79
2022/04/18 05:25:09;;;;;;;4.55;4.15;;;4.80;96.30;;;;;;6186793;23;20253;-79
2022/04/18 05:27:36;;;;;;;4.90;4.50;;;4.90;96.60;;;;;;6186977;23;20185;-79
2022/04/18 05:30:04;;;;;;;6.10;5.50;;;5.00;96.80;;;;;;6186794;23;20182;-79
2022/04/18 05:32:30;;;;;;;4.85;4.40;;;5.00;96.70;;;;;;6186745;23;20513;-79
2022/04/18 05:34:58;;;;;;;5.03;4.53;;;5.10;96.50;;;;;;6186759;23;20212;-79
2022/04/18 05:37:26;;;;;;;6.32;3.97;;;5.10;96.10;;;;;;6187021;23;20189;-79
2022/04/18 05:39:52;;;;;;;5.18;4.68;;;5.20;94.80;;;;;;6186592;23;20187;-79
2022/04/18 05:42:23;;;;;;;5.68;5.18;;;5.20;93.80;;;;;;6186493;23;20178;-79
2022/04/18 05:44:50;;;;;;;5.38;4.93;;;5.20;93.10;;;;;;6186142;23;20209;-79
2022/04/18 05:47:16;;;;;;;3.78;3.40;;;5.40;92.50;;;;;;6186650;23;20178;-79
2022/04/18 05:49:43;;;;;;;5.10;4.60;;;5.50;91.80;;;;;;6187012;23;20185;-79
2022/04/18 05:52:13;;;;;;;4.25;3.85;;;5.60;91.40;;;;;;6186582;23;20246;-79
2022/04/18 05:54:40;;;;;;;4.85;4.18;;;5.70;91.00;;;;;;6187473;23;20751;-79
2022/04/18 05:57:07;;;;;;;3.97;3.67;;;5.80;91.10;;;;;;6187078;23;20206;-79
2022/04/18 05:59:33;;;;;;;6.07;4.25;;;5.80;91.10;;;;;;6186744;23;20189;-79
2022/04/18 06:02:00;;;;;;;4.97;4.68;;;6.00;90.90;;;;;;6186701;23;20183;-79
2022/04/18 06:04:27;;;;;;;6.50;3.75;;;6.00;90.00;;;;;;6186829;23;20202;-79
2022/04/18 06:06:54;;;;;;;4.47;3.90;;;6.20;89.20;;;;;;6159716;23;20209;-79
2022/04/18 06:09:22;;;;;;;4.15;3.50;;;6.30;89.70;;;;;;6187058;23;20182;-79
2022/04/18 06:11:49;;;;;;;4.68;4.15;;;6.40;88.90;;;;;;6186566;23;20189;-79
2022/04/18 06:14:15;;;;;;;4.35;3.83;;;6.40;87.40;;;;;;6186668;23;20529;-79
2022/04/18 06:16:42;;;;;;;4.03;3.63;;;6.50;87.40;;;;;;6185319;23;20205;-79
2022/04/18 06:19:09;;;;;;;4.22;3.83;;;6.60;86.90;;;;;;6186703;23;20178;-79
2022/04/18 06:21:35;;;;;;;3.63;3.40;;;6.70;86.30;;;;;;6186217;23;20496;-79
2022/04/18 06:24:02;;;;;;;4.00;3.80;;;6.80;85.20;;;;;;6186484;23;20178;-79
2022/04/18 06:26:30;;;;;;;3.33;3.03;;;6.80;85.00;;;;;;6186737;23;20199;-79
2022/04/18 06:28:58;;;;;;;4.03;3.72;;;6.90;84.10;;;;;;6186920;23;20204;-79
2022/04/18 06:31:25;;;;;;;4.40;4.03;;;7.10;83.70;;;;;;6186626;23;20307;-79
2022/04/18 06:33:52;;;;;;;4.35;3.20;;;7.20;82.90;;;;;;6186501;23;20198;-79
2022/04/18 06:36:28;;;;;;;4.45;3.88;;;7.20;82.10;;;;;;6186025;23;20694;-80
2022/04/18 06:38:58;;;;;;;4.88;4.40;;;7.30;82.30;;;;;;6186607;23;20169;-80
2022/04/18 06:41:24;;;;;;;3.70;3.40;;;7.50;81.80;;;;;;6185742;23;20190;-80
2022/04/18 06:43:54;;;;;;;4.35;3.88;;;7.60;81.40;;;;;;6186002;23;20179;-80
2022/04/18 06:46:20;;;;;;;3.75;3.47;;;7.70;81.30;;;;;;6186444;23;20230;-80
2022/04/18 06:48:47;;;;;;;6.70;3.90;;;7.80;81.00;;;;;;6186579;23;20178;-80
2022/04/18 06:51:14;;;;;;;6.30;4.50;;;7.80;80.30;;;;;;6186526;23;20190;-80
2022/04/18 06:53:44;;;;;;;3.95;3.75;;;7.90;80.10;;;;;;6188802;23;20554;-80
2022/04/18 06:59:00;;;;;;;4.50;3.95;;;8.10;79.40;;;;;;6187694;23;20183;-80
2022/04/18 07:01:27;;;;;;;4.07;3.70;;;8.10;79.20;;;;;;6187404;23;20508;-80
2022/04/18 07:03:58;;;;;;;5.55;4.47;;;8.20;78.60;;;;;;6186542;23;20170;-80
2022/04/18 07:06:25;;;;;;;4.10;3.80;;;8.30;78.00;;;;;;6187208;23;20746;-80
2022/04/18 07:12:43;;;;;;;4.72;3.92;;;8.40;78.70;;;;;;6174801;23;20183;-84
2022/04/18 07:15:15;;;;;;;5.75;4.32;;;8.70;78.00;;;;;;6185750;23;20215;-84
2022/04/18 07:17:42;;;;;;;4.38;3.97;;;8.70;77.80;;;;;;6197162;23;20252;-84
2022/04/18 07:20:15;;;;;;;6.32;4.05;;;8.70;78.50;;;;;;6196893;23;20198;-87
2022/04/18 07:22:43;;;;;;;4.35;3.95;;;8.80;79.10;;;;;;6195840;23;20796;-86
2022/04/18 07:25:10;;;;;;;4.95;3.85;;;8.90;77.60;;;;;;6190734;23;20195;-82
2022/04/18 07:27:37;;;;;;;5.17;4.70;;;9.10;77.50;;;;;;6191317;23;20185;-81
2022/04/18 07:30:04;;;;;;;4.25;3.85;;;9.20;77.10;;;;;;6190781;23;20461;-81
2022/04/18 07:32:38;;;;;;;6.10;4.20;;;9.30;77.80;;;;;;6190496;23;20266;-81
2022/04/18 07:35:06;;;;;;;4.30;3.57;;;9.40;76.00;;;;;;6191275;23;20212;-81
2022/04/18 07:37:32;;;;;;;4.10;3.78;;;9.50;75.90;;;;;;6204186;23;20390;-80
2022/04/18 07:39:59;;;;;;;3.63;3.30;;;9.70;75.40;;;;;;6211012;23;20185;-80
2022/04/18 07:42:26;;;;;;;4.60;4.20;;;9.80;75.20;;;;;;6194286;23;20184;-81
2022/04/18 07:44:52;;;;;;;5.53;4.00;;;9.90;74.20;;;;;;6191319;23;20420;-81
2022/04/18 07:47:19;;;;;;;4.50;4.13;;;10.00;72.10;;;;;;6191357;23;20911;-81
2022/04/18 07:49:47;;;;;;;5.00;3.83;;;10.10;72.00;;;;;;6191295;23;20421;-81
2022/04/18 07:52:14;;;;;;;4.07;3.57;;;10.30;71.60;;;;;;6191691;23;20435;-81
2022/04/18 07:54:41;;;;;;;4.57;4.17;;;10.40;71.30;;;;;;6191114;23;20449;-80
2022/04/18 07:57:07;;;;;;;4.27;3.97;;;10.50;71.00;;;;;;6190607;23;20448;-81
2022/04/18 07:59:34;;;;;;;3.90;3.60;;;10.50;71.30;;;;;;6191420;23;20417;-81
2022/04/18 08:02:01;;;;;;;4.73;4.33;;;10.60;70.90;;;;;;6191451;23;20756;-81
2022/04/18 08:04:28;;;;;;;4.97;4.40;;;10.80;70.70;;;;;;6191848;23;20432;-81
2022/04/18 08:06:56;;;;;;;4.50;4.10;;;10.90;69.80;;;;;;6191202;23;20460;-81
2022/04/18 08:09:23;;;;;;;7.10;4.20;;;10.90;68.90;;;;;;6190980;23;20413;-81
2022/04/18 08:11:50;;;;;;;4.50;4.10;;;10.90;68.40;;;;;;6191128;23;20419;-81
2022/04/18 08:14:16;;;;;;;4.40;3.63;;;10.90;67.60;;;;;;6191156;23;20455;-81
2022/04/18 08:16:43;;;;;;;4.83;4.00;;;11.10;68.40;;;;;;6191355;23;20429;-81
2022/04/18 08:19:10;;;;;;;4.60;4.20;;;11.30;67.60;;;;;;6191326;23;20741;-81
2022/04/18 08:21:36;;;;;;;5.20;4.60;;;11.40;66.90;;;;;;6190728;23;20476;-81
2022/04/18 08:24:05;;;;;;;4.40;3.70;;;11.50;67.10;;;;;;6190789;23;20397;-81
2022/04/18 08:26:32;;;;;;;4.40;3.83;;;11.70;67.30;;;;;;6190652;23;20426;-82
2022/04/18 08:28:58;;;;;;;4.10;3.77;;;11.70;67.30;;;;;;6191947;23;20409;-81
2022/04/18 08:31:25;;;;;;;4.20;3.80;;;11.80;66.40;;;;;;6191062;23;20412;-81
2022/04/18 08:33:52;;;;;;;4.40;4.00;;;11.90;65.80;;;;;;6191388;23;20417;-81
2022/04/18 08:36:18;;;;;;;5.40;5.00;;;12.10;65.60;;;;;;6190821;23;20430;-81
2022/04/18 08:38:45;;;;;;;3.93;3.40;;;12.20;63.40;;;;;;6190646;23;20421;-81
2022/04/18 08:41:21;;;;;;;4.03;3.73;;;12.20;65.50;;;;;;6190689;23;20402;-81
2022/04/18 08:43:47;;;;;;;4.90;4.50;;;12.20;64.30;;;;;;6191721;23;20404;-81
2022/04/18 08:46:15;;;;;;;4.40;4.00;;;12.20;62.40;;;;;;6191288;23;20433;-81
2022/04/18 08:54:13;;;;;;;3.90;3.53;;;12.60;63.70;;;;;;6191083;23;20469;-81
2022/04/18 08:56:41;;;;;;;4.37;4.07;;;12.70;63.00;;;;;;6190941;23;20444;-81
2022/04/18 08:59:07;;;;;;;4.60;4.20;;;12.80;62.50;;;;;;6190775;23;20410;-81
2022/04/18 09:01:34;;;;;;;5.10;4.27;;;13.00;61.20;;;;;;6190590;23;20417;-81
2022/04/18 09:04:01;;;;;;;4.13;3.50;;;13.00;60.60;;;;;;6190553;23;20564;-81
2022/04/18 09:06:30;;;;;;;3.67;3.37;;;13.10;63.70;;;;;;6191301;23;20429;-81
2022/04/18 09:08:58;;;;;;;4.43;4.03;;;13.20;62.30;;;;;;6192266;23;20414;-81
2022/04/18 09:11:29;;;;;;;3.47;3.17;;;13.30;62.50;;;;;;6196342;23;20416;-80
2022/04/18 09:14:05;;;;;;;4.73;4.17;;;13.40;60.80;;;;;;6196045;23;20761;-80
2022/04/18 09:16:33;;;;;;;3.80;3.50;;;13.40;62.80;;;;;;6196247;23;20430;-79
2022/04/18 09:19:05;;;;;;;4.33;3.93;;;13.50;60.00;;;;;;6195667;23;21001;-80
2022/04/18 09:21:31;;;;;;;4.23;3.93;;;13.60;58.90;;;;;;6196204;23;20412;-80
2022/04/18 09:23:58;;;;;;;4.57;4.17;;;13.70;59.50;;;;;;6196044;23;20418;-79
2022/04/18 09:26:25;;;;;;;4.97;4.67;;;13.70;58.80;;;;;;6195778;23;20431;-80
2022/04/18 09:29:02;;;;;;;4.70;4.37;;;13.70;59.10;;;;;;6195381;23;20411;-79
2022/04/18 09:31:39;;;;;;;4.30;4.00;;;13.80;59.10;;;;;;6195281;23;20394;-78
2022/04/18 09:34:06;;;;;;;3.77;3.47;;;13.90;58.50;;;;;;6195306;23;20437;-80
2022/04/18 09:36:33;;;;;;;3.83;3.17;;;14.00;59.10;;;;;;6197188;23;20465;-80
2022/04/18 09:39:00;;;;;;;4.50;3.40;;;14.10;58.70;;;;;;6196391;23;20417;-80
2022/04/18 09:41:28;;;;;;;6.43;3.30;;;14.30;55.90;;;;;;6195908;23;20410;-81
2022/04/18 09:43:56;;;;;;;4.27;3.87;;;14.30;54.60;;;;;;6197352;23;20410;-80
2022/04/18 09:46:24;;;;;;;3.37;3.10;;;14.40;55.70;;;;;;6193884;23;20438;-80
2022/04/18 09:48:53;;;;;;;3.30;3.00;;;14.40;55.10;;;;;;6198534;23;20428;-80
2022/04/18 09:51:25;;;;;;;3.60;3.30;;;14.50;55.90;;;;;;6197529;23;20432;-80
2022/04/18 09:53:54;;;;;;;3.93;3.70;;;14.60;56.10;;;;;;6194303;23;20458;-79
2022/04/18 09:56:24;;;;;;;3.60;3.30;;;14.60;53.80;;;;;;6197561;23;20418;-79
2022/04/18 09:58:53;;;;;;;3.60;3.37;;;14.70;53.40;;;;;;6198039;23;20392;-80
2022/04/18 10:01:20;;;;;;;3.90;3.53;;;14.80;52.80;;;;;;6198844;23;20430;-80
2022/04/18 10:03:50;;;;;;;4.30;4.00;;;14.90;52.90;;;;;;6198655;23;20767;-84
2022/04/18 10:06:18;;;;;;;3.47;3.27;;;14.90;54.10;;;;;;6192809;23;20436;-81
2022/04/18 10:08:45;;;;;;;4.20;3.90;;;15.10;55.20;;;;;;6191091;23;20417;-80
2022/04/18 10:11:12;;;;;;;3.83;3.53;;;15.20;53.90;;;;;;6193494;23;20424;-79
2022/04/18 10:13:39;;;;;;;3.70;3.40;;;15.20;53.00;;;;;;6196308;23;20411;-80
2022/04/18 10:16:07;;;;;;;4.37;3.97;;;15.30;52.40;;;;;;6195854;23;20458;-80
2022/04/18 10:18:40;;;;;;;4.63;3.57;;;15.30;52.20;;;;;;6195149;23;20422;-80
2022/04/18 10:21:22;;;;;;;4.90;4.50;;;15.40;53.40;;;;;;6194231;23;20397;-80
2022/04/18 10:24:22;;;;;;;4.33;4.07;;;15.40;52.50;;;;;;6194053;23;20404;-80
2022/04/18 10:27:15;;;;;;;3.83;3.53;;;15.50;55.40;;;;;;6196339;23;20434;-80
2022/04/18 10:29:47;;;;;;;4.57;4.17;;;15.80;52.90;;;;;;6196689;23;20395;-80
2022/04/18 10:32:18;;;;;;;4.20;3.80;;;16.00;51.70;;;;;;6198004;23;20660;-80
2022/04/18 10:34:50;;;;;;;3.97;3.63;;;16.10;50.50;;;;;;6198544;23;20473;-81
2022/04/18 10:37:23;;;;;;;4.37;4.17;;;16.20;48.60;;;;;;6198778;23;20400;-81
2022/04/18 10:39:58;;;;;;;4.57;4.20;;;16.40;49.00;;;;;;6195715;23;20456;-80
2022/04/18 10:42:29;;;;;;;3.93;3.63;;;16.50;51.00;;;;;;6193382;23;20390;-80
2022/04/18 10:45:10;;;;;;;4.47;4.00;;;16.60;49.70;;;;;;6192694;23;20393;-82
2022/04/18 10:48:09;;;;;;;3.90;3.10;;;16.70;49.30;;;;;;6188156;23;20462;-79
2022/04/18 10:50:39;;;;;;;3.87;3.30;;;16.90;49.30;;;;;;6188761;23;20527;-79
2022/04/18 10:53:12;;;;;;;4.20;3.40;;;17.00;50.30;;;;;;6190658;23;20438;-79
2022/04/18 10:55:40;;;;;;;3.60;3.30;;;17.30;51.30;;;;;;6188750;23;20463;-80
2022/04/18 10:58:14;;;;;;;3.77;3.57;;;17.60;48.90;;;;;;6189172;23;20397;-80
2022/04/18 11:00:49;;;;;;;3.43;3.23;;;17.90;48.30;;;;;;6188172;23;20395;-82
2022/04/18 11:03:47;;;;;;;3.53;3.23;;;18.10;48.50;;;;;;6189117;23;20408;-81
2022/04/18 11:06:52;;;;;;;4.20;3.90;;;18.60;48.30;;;;;;6185707;23;20422;-78
2022/04/18 11:09:24;;;;;;;3.10;2.90;;;19.40;48.70;;;;;;6186201;23;20731;-79
2022/04/18 11:11:55;;;;;;;4.17;3.87;;;20.20;46.60;;;;;;6185179;23;20403;-78
2022/04/18 11:14:24;;;;;;;3.87;3.57;;;20.80;44.20;;;;;;6185606;23;20391;-79
2022/04/18 11:16:56;;;;;;;3.40;3.20;;;21.40;45.00;;;;;;6185012;23;20436;-78
2022/04/18 11:19:25;;;;;;;3.80;3.50;;;21.90;41.50;;;;;;6185689;23;20428;-78
2022/04/18 11:22:17;;;;;;;3.73;3.43;;;22.40;41.80;;;;;;6188918;23;20405;-78
2022/04/18 11:24:59;;;;;;;3.53;3.33;;;22.50;38.50;;;;;;6190605;23;20404;-79
2022/04/18 11:27:35;;;;;;;4.70;4.30;;;22.80;38.10;;;;;;6186432;23;20883;-79
2022/04/18 11:30:05;;;;;;;3.57;3.27;;;23.00;37.80;;;;;;6185963;23;20403;-79
2022/04/18 11:32:34;;;;;;;4.90;4.30;;;23.10;38.70;;;;;;6185906;23;20393;-79
2022/04/18 11:35:03;;;;;;;4.77;4.23;;;23.00;36.60;;;;;;6185439;23;20467;-79
2022/04/18 11:37:31;;;;;;;3.77;3.47;;;23.20;38.80;;;;;;6185750;23;20414;-79
2022/04/18 11:40:01;;;;;;;3.70;3.50;;;23.80;38.00;;;;;;6185442;23;20406;-81
2022/04/18 11:42:29;;;;;;;3.73;3.30;;;24.30;37.80;;;;;;6186021;23;20406;-81
2022/04/18 11:44:58;;;;;;;3.73;3.43;;;25.10;36.70;;;;;;6186643;23;20409;-79
2022/04/18 11:47:27;;;;;;;4.00;3.60;;;25.90;35.90;;;;;;6186146;23;20413;-79
2022/04/18 11:49:55;;;;;;;4.30;3.90;;;26.40;34.50;;;;;;6185687;23;20744;-78
2022/04/18 11:52:24;;;;;;;3.80;3.50;;;26.50;33.50;;;;;;6184166;23;20713;-78
2022/04/18 11:55:00;;;;;;;4.40;4.10;;;26.90;32.80;;;;;;6185145;23;20181;-79
2022/04/18 11:57:28;;;;;;;5.17;4.67;;;27.40;33.30;;;;;;6184826;23;20418;-79
2022/04/18 11:59:56;;;;;;;5.40;4.10;;;26.60;29.30;;;;;;6185552;23;20895;-79
2022/04/18 12:07:57;;;;;;;4.30;3.90;;;25.70;33.30;;;;;;6186145;23;20987;-79
2022/04/18 12:10:28;;;;;;;5.80;3.80;;;25.50;32.60;;;;;;6186993;23;20416;-79
2022/04/18 12:12:55;;;;;;;4.50;4.10;;;25.30;33.30;;;;;;6187462;23;20439;-78
2022/04/18 12:15:23;;;;;;;4.57;4.17;;;25.20;33.50;;;;;;6186817;23;20505;-80
2022/04/18 12:17:51;;;;;;;4.30;4.00;;;25.20;34.60;;;;;;6186623;23;20454;-79
2022/04/18 12:20:22;;;;;;;3.87;3.57;;;25.30;32.30;;;;;;6186155;23;20419;-80
2022/04/18 12:22:52;;;;;;;5.30;3.90;;;25.40;33.50;;;;;;6186149;23;20412;-79
2022/04/18 12:25:23;;;;;;;4.30;4.00;;;25.40;32.60;;;;;;6186279;23;20458;-78
2022/04/18 12:27:52;;;;;;;4.00;3.60;;;25.20;31.90;;;;;;6186432;23;20456;-80
2022/04/18 12:30:19;;;;;;;3.87;3.60;;;24.90;33.40;;;;;;6186313;23;20422;-80
2022/04/18 12:32:48;;;;;;;4.30;4.00;;;24.80;32.80;;;;;;6186731;23;20395;-80
2022/04/18 12:35:16;;;;;;;3.80;3.50;;;24.80;32.50;;;;;;6185877;23;20934;-80
2022/04/18 12:37:47;;;;;;;3.97;3.67;;;24.70;33.90;;;;;;6187097;23;20407;-80
2022/04/18 12:40:15;;;;;;;3.57;3.37;;;24.80;33.70;;;;;;6185261;23;20479;-78
2022/04/18 12:42:49;;;;;;;4.30;3.90;;;24.90;34.30;;;;;;6184626;23;20431;-78
2022/04/18 12:45:18;;;;;;;3.97;3.73;;;24.60;31.50;;;;;;6184370;23;20446;-77
2022/04/18 12:47:45;;;;;;;4.07;3.77;;;24.40;34.60;;;;;;6184687;23;20788;-77
2022/04/18 12:50:14;;;;;;;4.67;4.27;;;24.50;35.00;;;;;;6183994;23;20781;-78
2022/04/18 12:52:49;;;;;;;4.37;3.97;;;24.70;34.60;;;;;;6184359;23;20415;-78
2022/04/18 12:55:17;;;;;;;4.60;4.30;;;24.20;33.30;;;;;;6184545;23;20430;-77
2022/04/18 12:57:50;;;;;;;3.70;3.30;;;24.40;33.30;;;;;;6184193;23;20473;-77
2022/04/18 13:00:18;;;;;;;4.40;4.00;;;24.20;32.20;;;;;;6184356;23;20411;-78
2022/04/18 13:02:59;;;;;;;4.10;3.80;;;24.20;34.30;;;;;;6183683;23;20414;-78
2022/04/18 13:05:28;;;;;;;4.07;3.70;;;24.20;33.50;;;;;;6184521;23;20785;-77
2022/04/18 13:07:58;;;;;;;4.47;4.10;;;24.40;33.10;;;;;;6184502;23;20406;-77
2022/04/18 13:10:29;;;;;;;4.30;3.53;;;24.50;32.90;;;;;;6185602;23;20395;-78
2022/04/18 13:13:03;;;;;;;4.40;4.00;;;24.50;33.90;;;;;;6184525;23;20415;-79
2022/04/18 13:15:32;;;;;;;3.57;3.13;;;24.60;32.90;;;;;;6187813;23;20431;-79
2022/04/18 13:18:01;;;;;;;4.23;3.80;;;25.00;34.10;;;;;;6188884;23;20986;-80
2022/04/18 13:20:29;;;;;;;3.80;3.50;;;25.20;32.80;;;;;;6187446;23;20420;-78
2022/04/18 13:22:56;;;;;;;4.17;3.87;;;25.40;32.60;;;;;;6186846;23;20424;-78
2022/04/18 13:25:24;;;;;;;5.00;3.93;;;25.60;32.70;;;;;;6187956;23;20483;-80